Time,TemperatureF,DewpointF,PressureIn,WindDirection,WindDirectionDegrees,WindSpeedMPH,WindSpeedGustMPH,Humidity,HourlyPrecipIn,Conditions,Clouds,dailyrainin,SoftwareType,DateUTC
2013-01-02 00:00:00,39.6,39.6,30.00,N/A,-737280,0.0,-999.0,100,0.00,,,0.04,Wunderground v.1.15,2013-01-02 05:00:00,
2013-01-02 00:05:00,39.6,39.6,30.00,SSW,213,0.0,0.0,100,0.00,,,0.00,Wunderground v.1.15,2013-01-02 05:05:00,
2013-01-02 00:10:00,39.6,39.6,30.00,SW,225,1.0,5.0,100,0.00,,,0.00,Wunderground v.1.15,2013-01-02 05:10:00,
2013-01-02 00:15:00,39.5,39.5,30.01,SW,225,2.0,4.0,100,0.00,,,0.00,Wunderground v.1.15,2013-01-02 05:15:00,
2013-01-02 00:20:00,39.5,39.5,30.01,SW,228,3.0,4.0,100,0.00,,,0.01,Wunderground v.1.15,2013-01-02 05:20:00,
2013-01-02 00:25:00,39.3,39.3,30.00,N/A,-737280,0.0,-999.0,100,0.01,,,0.04,Wunderground v.1.15,2013-01-02 05:25:00,
2013-01-02 00:30:00,39.2,39.2,30.00,West,265,1.0,2.0,100,0.00,,,0.01,Wunderground v.1.15,2013-01-02 05:30:00,
2013-01-02 00:35:00,39.2,39.2,29.99,N/A,-737280,0.0,-999.0,100,0.01,,,0.04,Wunderground v.1.15,2013-01-02 05:35:00,
2013-01-02 00:40:00,38.8,38.5,30.00,West,265,0.0,0.0,99,0.04,,,0.02,Wunderground v.1.15,2013-01-02 05:40:00,
2013-01-02 00:45:00,38.2,37.9,30.00,West,259,1.0,4.0,99,0.04,,,0.02,Wunderground v.1.15,2013-01-02 05:45:00,
2013-01-02 00:50:00,37.8,37.5,30.00,SW,225,0.0,-999.0,99,0.02,,,0.04,Wunderground v.1.15,2013-01-02 05:50:00,
2013-01-02 00:55:00,37.3,37.0,30.00,SSW,205,2.0,2.0,99,0.00,,,0.02,Wunderground v.1.15,2013-01-02 05:55:00,
2013-01-02 01:00:00,37.2,36.9,29.99,N/A,-737280,0.0,-999.0,99,0.02,,,0.04,Wunderground v.1.15,2013-01-02 06:00:00,
2013-01-02 01:05:00,37.0,36.7,29.99,West,259,0.0,1.0,99,0.00,,,0.02,Wunderground v.1.15,2013-01-02 06:05:00,
2013-01-02 01:10:00,36.9,36.6,29.99,West,273,1.0,10.0,99,0.00,,,0.02,Wunderground v.1.15,2013-01-02 06:10:00,
2013-01-02 01:15:00,36.8,36.5,29.99,WNW,293,1.0,-999.0,99,0.02,,,0.04,Wunderground v.1.15,2013-01-02 06:15:00,
2013-01-02 01:20:00,36.6,36.3,30.00,WNW,299,2.0,2.0,99,0.00,,,0.02,Wunderground v.1.15,2013-01-02 06:20:00,
2013-01-02 01:25:00,36.5,36.0,30.00,NW,315,1.0,-999.0,98,0.01,,,0.04,Wunderground v.1.15,2013-01-02 06:25:00,
2013-01-02 01:30:00,36.5,36.0,30.01,NW,305,2.0,2.0,98,0.00,,,0.02,Wunderground v.1.15,2013-01-02 06:30:00,
2013-01-02 01:35:00,36.3,35.8,30.00,NW,305,1.0,2.0,98,0.00,,,0.02,Wunderground v.1.15,2013-01-02 06:35:00,
2013-01-02 01:40:00,36.3,35.5,30.00,NW,306,1.0,1.0,97,0.00,,,0.02,Wunderground v.1.15,2013-01-02 06:40:00,
2013-01-02 01:45:00,36.3,35.5,30.00,N/A,-737280,0.0,-999.0,97,0.00,,,0.04,Wunderground v.1.15,2013-01-02 06:45:00,
2013-01-02 01:50:00,36.2,35.2,30.01,NW,306,0.0,0.0,96,0.00,,,0.02,Wunderground v.1.15,2013-01-02 06:50:00,
2013-01-02 01:55:00,36.2,35.2,30.01,N/A,-737280,0.0,-999.0,96,0.01,,,0.04,Wunderground v.1.15,2013-01-02 06:55:00,
2013-01-02 02:00:00,36.0,35.0,30.02,NW,307,1.0,1.0,96,0.00,,,0.03,Wunderground v.1.15,2013-01-02 07:00:00,
2013-01-02 02:05:00,35.9,34.6,30.02,NW,307,0.0,1.0,95,0.00,,,0.03,Wunderground v.1.15,2013-01-02 07:05:00,
2013-01-02 02:10:00,35.9,34.6,30.02,N/A,-737280,0.0,-999.0,95,0.01,,,0.04,Wunderground v.1.15,2013-01-02 07:10:00,
2013-01-02 02:11:00,35.9,34.6,30.02,NW,307,0.0,0.0,95,0.00,,,0.03,Wunderground v.1.15,2013-01-02 07:11:00,
2013-01-02 02:15:00,35.9,34.6,30.02,N/A,-737280,0.0,-999.0,95,0.01,,,0.04,Wunderground v.1.15,2013-01-02 07:15:00,
2013-01-02 02:20:00,35.9,34.6,30.02,NW,307,0.0,0.0,95,0.00,,,0.03,Wunderground v.1.15,2013-01-02 07:20:00,
2013-01-02 02:25:00,35.9,34.6,30.03,NW,307,0.0,0.0,95,0.00,,,0.03,Wunderground v.1.15,2013-01-02 07:25:00,
2013-01-02 02:30:00,35.9,34.6,30.02,NW,307,0.0,0.0,95,0.00,,,0.03,Wunderground v.1.15,2013-01-02 07:30:00,
2013-01-02 02:35:00,35.8,34.5,30.03,NW,315,1.0,-999.0,95,0.01,,,0.04,Wunderground v.1.15,2013-01-02 07:35:00,
2013-01-02 02:40:00,35.8,34.5,30.04,NW,307,0.0,0.0,95,0.00,,,0.03,Wunderground v.1.15,2013-01-02 07:40:00,
2013-01-02 02:45:00,35.6,34.3,30.04,NW,306,0.0,0.0,95,0.00,,,0.03,Wunderground v.1.15,2013-01-02 07:45:00,
2013-01-02 02:50:00,35.6,34.3,30.04,NW,306,0.0,0.0,95,0.00,,,0.03,Wunderground v.1.15,2013-01-02 07:50:00,
2013-01-02 02:55:00,35.5,34.2,30.04,N/A,-737280,0.0,-999.0,95,0.00,,,0.04,Wunderground v.1.15,2013-01-02 07:55:00,
2013-01-02 03:00:00,35.3,33.7,30.04,NW,306,0.0,0.0,94,0.00,,,0.03,Wunderground v.1.15,2013-01-02 08:00:00,
2013-01-02 03:05:00,35.2,33.9,30.04,N/A,-737280,0.0,-999.0,95,0.00,,,0.04,Wunderground v.1.15,2013-01-02 08:05:00,
2013-01-02 03:10:00,35.2,33.9,30.04,NW,306,0.0,0.0,95,0.00,,,0.03,Wunderground v.1.15,2013-01-02 08:10:00,
2013-01-02 03:15:00,35.0,33.7,30.04,N/A,-737280,0.0,-999.0,95,0.00,,,0.04,Wunderground v.1.15,2013-01-02 08:15:00,
2013-01-02 03:20:00,35.0,33.7,30.03,NW,306,1.0,1.0,95,0.00,,,0.03,Wunderground v.1.15,2013-01-02 08:20:00,
2013-01-02 03:25:00,34.9,33.6,30.04,N/A,-737280,0.0,-999.0,95,0.00,,,0.04,Wunderground v.1.15,2013-01-02 08:25:00,
2013-01-02 03:30:00,34.7,33.4,30.04,NW,306,0.0,0.0,95,0.00,,,0.03,Wunderground v.1.15,2013-01-02 08:30:00,
2013-01-02 03:35:00,34.6,33.3,30.04,NW,306,0.0,0.0,95,0.00,,,0.04,Wunderground v.1.15,2013-01-02 08:35:00,
2013-01-02 03:40:00,34.4,33.1,30.03,N/A,-737280,0.0,-999.0,95,0.01,,,0.04,Wunderground v.1.15,2013-01-02 08:40:00,
2013-01-02 03:45:00,34.3,33.0,30.02,NW,306,0.0,0.0,95,0.00,,,0.04,Wunderground v.1.15,2013-01-02 08:45:00,
2013-01-02 03:50:00,34.3,33.0,30.02,NW,306,0.0,0.0,95,0.00,,,0.04,Wunderground v.1.15,2013-01-02 08:50:00,
2013-01-02 03:55:00,34.1,32.8,30.02,N/A,-737280,0.0,-999.0,95,0.01,,,0.04,Wunderground v.1.15,2013-01-02 08:55:00,
2013-01-02 04:00:00,34.1,33.1,30.02,NW,306,0.0,0.0,96,0.00,,,0.04,Wunderground v.1.15,2013-01-02 09:00:00,
2013-01-02 04:05:00,34.1,33.1,30.02,N/A,-737280,0.0,-999.0,96,0.01,,,0.04,Wunderground v.1.15,2013-01-02 09:05:00,
2013-01-02 04:10:00,34.1,33.1,30.02,NW,306,0.0,0.0,96,0.00,,,0.04,Wunderground v.1.15,2013-01-02 09:10:00,
2013-01-02 04:15:00,34.0,33.0,30.03,N/A,-737280,0.0,-999.0,96,0.01,,,0.04,Wunderground v.1.15,2013-01-02 09:15:00,
2013-01-02 04:20:00,33.8,32.8,30.03,NW,306,0.0,0.0,96,0.00,,,0.04,Wunderground v.1.15,2013-01-02 09:20:00,
2013-01-02 04:25:00,33.8,32.8,30.03,N/A,-737280,0.0,-999.0,96,0.01,,,0.04,Wunderground v.1.15,2013-01-02 09:25:00,
2013-01-02 04:30:00,33.8,32.8,30.01,NW,306,0.0,0.0,96,0.00,,,0.04,Wunderground v.1.15,2013-01-02 09:30:00,
2013-01-02 04:35:00,33.8,32.8,30.02,N/A,-737280,0.0,-999.0,96,0.00,,,0.04,Wunderground v.1.15,2013-01-02 09:35:00,
2013-01-02 04:40:00,33.7,32.9,30.03,NW,306,0.0,0.0,97,0.00,,,0.04,Wunderground v.1.15,2013-01-02 09:40:00,
2013-01-02 04:45:00,33.7,32.9,30.03,NW,306,0.0,0.0,97,0.00,,,0.04,Wunderground v.1.15,2013-01-02 09:45:00,
2013-01-02 04:50:00,33.7,32.9,30.03,NW,306,0.0,0.0,97,0.00,,,0.04,Wunderground v.1.15,2013-01-02 09:50:00,
2013-01-02 04:55:00,33.7,32.9,30.03,N/A,-737280,0.0,-999.0,97,0.00,,,0.04,Wunderground v.1.15,2013-01-02 09:55:00,
2013-01-02 05:00:00,33.7,32.9,30.04,NW,306,0.0,0.0,97,0.00,,,0.04,Wunderground v.1.15,2013-01-02 10:00:00,
2013-01-02 05:05:00,33.7,32.9,30.03,N/A,-737280,0.0,-999.0,97,0.00,,,0.04,Wunderground v.1.15,2013-01-02 10:05:00,
2013-01-02 05:10:00,33.7,32.9,30.03,NW,306,0.0,0.0,97,0.00,,,0.04,Wunderground v.1.15,2013-01-02 10:10:00,
2013-01-02 05:15:00,33.7,32.9,30.04,NW,306,0.0,0.0,97,0.00,,,0.04,Wunderground v.1.15,2013-01-02 10:15:00,
2013-01-02 05:20:00,33.7,32.7,30.04,NW,306,0.0,1.0,96,0.00,,,0.04,Wunderground v.1.15,2013-01-02 10:20:00,
2013-01-02 05:25:00,33.7,32.4,30.03,N/A,-737280,0.0,-999.0,95,0.00,,,0.04,Wunderground v.1.15,2013-01-02 10:25:00,
2013-01-02 05:30:00,33.5,32.2,30.03,NW,306,1.0,1.0,95,0.00,,,0.04,Wunderground v.1.15,2013-01-02 10:30:00,
2013-01-02 05:35:00,33.5,32.0,30.04,N/A,-737280,0.0,-999.0,94,0.00,,,0.04,Wunderground v.1.15,2013-01-02 10:35:00,
2013-01-02 05:40:00,33.5,32.0,30.04,NW,306,0.0,0.0,94,0.00,,,0.04,Wunderground v.1.15,2013-01-02 10:40:00,
2013-01-02 05:45:00,33.5,31.7,30.05,NW,315,2.0,-999.0,93,0.00,,,0.04,Wunderground v.1.15,2013-01-02 10:45:00,
2013-01-02 05:50:00,33.4,31.6,30.06,WSW,244,2.0,8.0,93,0.00,,,0.04,Wunderground v.1.15,2013-01-02 10:50:00,
2013-01-02 05:55:00,33.4,31.3,30.06,WNW,289,3.0,8.0,92,0.00,,,0.04,Wunderground v.1.15,2013-01-02 10:55:00,
2013-01-02 06:00:00,33.4,31.3,30.06,NW,315,2.0,-999.0,92,0.00,,,0.04,Wunderground v.1.15,2013-01-02 11:00:00,
2013-01-02 06:05:00,33.2,31.1,30.07,West,262,2.0,2.0,92,0.00,,,0.04,Wunderground v.1.15,2013-01-02 11:05:00,
2013-01-02 06:10:00,33.2,31.1,30.07,West,273,3.0,3.0,92,0.00,,,0.04,Wunderground v.1.15,2013-01-02 11:10:00,
2013-01-02 06:15:00,33.2,31.4,30.07,WNW,293,3.0,-999.0,93,0.00,,,0.04,Wunderground v.1.15,2013-01-02 11:15:00,
2013-01-02 06:20:00,33.1,31.3,30.07,WNW,297,3.0,3.0,93,0.00,,,0.04,Wunderground v.1.15,2013-01-02 11:20:00,
2013-01-02 06:25:00,33.1,31.3,30.07,West,270,5.0,-999.0,93,0.00,,,0.04,Wunderground v.1.15,2013-01-02 11:25:00,
2013-01-02 06:30:00,32.9,31.1,30.07,West,263,2.0,2.0,93,0.00,,,0.04,Wunderground v.1.15,2013-01-02 11:30:00,
2013-01-02 06:35:00,32.9,31.4,30.07,N/A,-737280,0.0,-999.0,94,0.00,,,0.04,Wunderground v.1.15,2013-01-02 11:35:00,
2013-01-02 06:40:00,32.8,31.3,30.07,West,275,1.0,1.0,94,0.00,,,0.04,Wunderground v.1.15,2013-01-02 11:40:00,
2013-01-02 06:45:00,32.8,31.3,30.07,WSW,248,1.0,-999.0,94,0.00,,,0.04,Wunderground v.1.15,2013-01-02 11:45:00,
2013-01-02 06:50:00,32.7,31.2,30.08,WSW,244,2.0,2.0,94,0.00,,,0.04,Wunderground v.1.15,2013-01-02 11:50:00,
2013-01-02 06:55:00,32.7,31.2,30.08,WNW,293,4.0,-999.0,94,0.00,,,0.04,Wunderground v.1.15,2013-01-02 11:55:00,
2013-01-02 07:00:00,32.7,30.9,30.08,WNW,302,1.0,1.0,93,0.00,,,0.04,Wunderground v.1.15,2013-01-02 12:00:00,
2013-01-02 07:05:00,32.7,30.9,30.09,N/A,-737280,0.0,-999.0,93,0.00,,,0.04,Wunderground v.1.15,2013-01-02 12:05:00,
2013-01-02 07:10:00,32.7,30.9,30.09,WSW,240,0.0,0.0,93,0.00,,,0.04,Wunderground v.1.15,2013-01-02 12:10:00,
2013-01-02 07:15:00,32.7,30.9,30.10,SW,223,0.0,4.0,93,0.00,,,0.04,Wunderground v.1.15,2013-01-02 12:15:00,
2013-01-02 07:20:00,32.7,30.9,30.10,WSW,248,3.0,-999.0,93,0.00,,,0.04,Wunderground v.1.15,2013-01-02 12:20:00,
2013-01-02 07:25:00,32.7,30.9,30.10,SW,228,1.0,2.0,93,0.00,,,0.04,Wunderground v.1.15,2013-01-02 12:25:00,
2013-01-02 07:30:00,32.5,30.7,30.10,SW,232,1.0,4.0,93,0.00,,,0.04,Wunderground v.1.15,2013-01-02 12:30:00,
2013-01-02 07:35:00,32.5,30.7,30.10,WSW,248,3.0,-999.0,93,0.00,,,0.04,Wunderground v.1.15,2013-01-02 12:35:00,
2013-01-02 07:40:00,32.4,30.6,30.10,WNW,292,4.0,4.0,93,0.00,,,0.04,Wunderground v.1.15,2013-01-02 12:40:00,
2013-01-02 07:45:00,32.4,30.9,30.10,WSW,248,0.0,-999.0,94,0.00,,,0.04,Wunderground v.1.15,2013-01-02 12:45:00,
2013-01-02 07:50:00,32.2,30.7,30.11,SW,226,1.0,4.0,94,0.00,,,0.04,Wunderground v.1.15,2013-01-02 12:50:00,
2013-01-02 07:55:00,32.2,30.7,30.11,WSW,248,3.0,-999.0,94,0.00,,,0.04,Wunderground v.1.15,2013-01-02 12:55:00,
2013-01-02 08:00:00,32.1,30.6,30.11,SW,234,2.0,2.0,94,0.00,,,0.04,Wunderground v.1.15,2013-01-02 13:00:00,
2013-01-02 08:05:00,32.1,30.6,30.12,WSW,248,3.0,-999.0,94,0.00,,,0.04,Wunderground v.1.15,2013-01-02 13:05:00,
2013-01-02 08:10:00,32.1,30.6,30.12,WSW,252,2.0,2.0,94,0.00,,,0.04,Wunderground v.1.15,2013-01-02 13:10:00,
2013-01-02 08:15:00,32.1,30.6,30.12,WSW,248,1.0,-999.0,94,0.00,,,0.04,Wunderground v.1.15,2013-01-02 13:15:00,
2013-01-02 08:20:00,32.1,30.6,30.12,WSW,242,1.0,1.0,94,0.00,,,0.04,Wunderground v.1.15,2013-01-02 13:20:00,
2013-01-02 08:25:00,32.1,30.6,30.12,WSW,245,1.0,3.0,94,0.00,,,0.04,Wunderground v.1.15,2013-01-02 13:25:00,
2013-01-02 08:30:00,32.1,30.6,30.12,WSW,245,1.0,1.0,94,0.00,,,0.04,Wunderground v.1.15,2013-01-02 13:30:00,
2013-01-02 08:35:00,32.1,30.6,30.12,WSW,248,3.0,-999.0,94,0.00,,,0.04,Wunderground v.1.15,2013-01-02 13:35:00,
2013-01-02 08:40:00,32.1,30.3,30.12,WSW,245,1.0,1.0,93,0.00,,,0.04,Wunderground v.1.15,2013-01-02 13:40:00,
2013-01-02 08:45:00,32.1,30.3,30.12,WSW,248,3.0,-999.0,93,0.00,,,0.04,Wunderground v.1.15,2013-01-02 13:45:00,
2013-01-02 08:50:00,31.9,30.1,30.13,WSW,239,3.0,3.0,93,0.00,,,0.04,Wunderground v.1.15,2013-01-02 13:50:00,
2013-01-02 08:55:00,31.9,29.8,30.13,SW,225,5.0,-999.0,92,0.00,,,0.04,Wunderground v.1.15,2013-01-02 13:55:00,
2013-01-02 09:00:00,32.1,30.0,30.12,WSW,244,3.0,3.0,92,0.00,,,0.04,Wunderground v.1.15,2013-01-02 14:00:00,
2013-01-02 09:05:00,32.2,30.1,30.14,WSW,244,1.0,3.0,92,0.00,,,0.04,Wunderground v.1.15,2013-01-02 14:05:00,
2013-01-02 09:10:00,32.2,30.1,30.14,WSW,248,1.0,-999.0,92,0.00,,,0.04,Wunderground v.1.15,2013-01-02 14:10:00,
2013-01-02 09:15:00,32.4,30.1,30.13,WSW,255,2.0,4.0,91,0.00,,,0.04,Wunderground v.1.15,2013-01-02 14:15:00,
2013-01-02 09:20:00,32.5,30.2,30.13,N/A,-737280,0.0,-999.0,91,0.00,,,0.04,Wunderground v.1.15,2013-01-02 14:20:00,
2013-01-02 09:25:00,32.8,30.5,30.13,West,269,1.0,1.0,91,0.00,,,0.04,Wunderground v.1.15,2013-01-02 14:25:00,
2013-01-02 09:30:00,32.9,30.3,30.14,WSW,250,1.0,4.0,90,0.00,,,0.04,Wunderground v.1.15,2013-01-02 14:30:00,
2013-01-02 09:35:00,33.1,30.5,30.14,SW,234,2.0,2.0,90,0.00,,,0.04,Wunderground v.1.15,2013-01-02 14:35:00,
2013-01-02 09:40:00,33.2,30.6,30.14,SW,221,2.0,3.0,90,0.00,,,0.04,Wunderground v.1.15,2013-01-02 14:40:00,
2013-01-02 09:45:00,33.1,30.5,30.15,N/A,-737280,0.0,-999.0,90,0.00,,,0.04,Wunderground v.1.15,2013-01-02 14:45:00,
2013-01-02 09:50:00,33.4,30.8,30.15,WSW,247,1.0,2.0,90,0.00,,,0.04,Wunderground v.1.15,2013-01-02 14:50:00,
2013-01-02 09:55:00,33.7,31.1,30.15,SW,225,5.0,-999.0,90,0.00,,,0.04,Wunderground v.1.15,2013-01-02 14:55:00,
2013-01-02 10:00:00,33.8,31.2,30.15,WSW,251,3.0,3.0,90,0.00,,,0.04,Wunderground v.1.15,2013-01-02 15:00:00,
2013-01-02 10:05:00,33.8,31.2,30.15,WSW,240,2.0,3.0,90,0.00,,,0.04,Wunderground v.1.15,2013-01-02 15:05:00,
2013-01-02 10:10:00,33.8,31.2,30.15,N/A,-737280,0.0,-999.0,90,0.00,,,0.04,Wunderground v.1.15,2013-01-02 15:10:00,
2013-01-02 10:15:00,34.1,31.2,30.16,WSW,239,0.0,1.0,89,0.00,,,0.04,Wunderground v.1.15,2013-01-02 15:15:00,
2013-01-02 10:20:00,34.1,31.2,30.16,WSW,238,0.0,1.0,89,0.00,,,0.04,Wunderground v.1.15,2013-01-02 15:20:00,
2013-01-02 10:25:00,33.7,30.2,30.16,SW,231,1.0,1.0,87,0.00,,,0.04,Wunderground v.1.15,2013-01-02 15:25:00,
2013-01-02 10:30:00,33.7,30.5,30.17,N/A,-737280,0.0,-999.0,88,0.00,,,0.04,Wunderground v.1.15,2013-01-02 15:30:00,
2013-01-02 10:35:00,33.5,30.3,30.17,West,273,0.0,2.0,88,0.00,,,0.04,Wunderground v.1.15,2013-01-02 15:35:00,
2013-01-02 10:40:00,33.7,30.8,30.17,NW,313,1.0,1.0,89,0.00,,,0.04,Wunderground v.1.15,2013-01-02 15:40:00,
2013-01-02 10:45:00,33.8,30.9,30.17,N/A,-737280,0.0,-999.0,89,0.00,,,0.04,Wunderground v.1.15,2013-01-02 15:45:00,
2013-01-02 10:50:00,34.3,31.4,30.17,West,271,1.0,5.0,89,0.00,,,0.04,Wunderground v.1.15,2013-01-02 15:50:00,
2013-01-02 10:55:00,34.0,30.5,30.17,N/A,-737280,0.0,-999.0,87,0.00,,,0.04,Wunderground v.1.15,2013-01-02 15:55:00,
2013-01-02 11:00:00,34.1,30.9,30.17,West,276,2.0,5.0,88,0.00,,,0.04,Wunderground v.1.15,2013-01-02 16:00:00,
2013-01-02 11:05:00,34.1,30.6,30.17,WSW,250,2.0,5.0,87,0.00,,,0.04,Wunderground v.1.15,2013-01-02 16:05:00,
2013-01-02 11:10:00,34.3,30.8,30.16,WSW,248,1.0,-999.0,87,0.00,,,0.04,Wunderground v.1.15,2013-01-02 16:10:00,
2013-01-02 11:15:00,34.1,30.4,30.16,West,270,1.0,2.0,86,0.00,,,0.04,Wunderground v.1.15,2013-01-02 16:15:00,
2013-01-02 11:20:00,34.1,30.4,30.16,WSW,238,2.0,3.0,86,0.00,,,0.04,Wunderground v.1.15,2013-01-02 16:20:00,
2013-01-02 11:25:00,34.3,30.8,30.16,WSW,248,0.0,-999.0,87,0.00,,,0.04,Wunderground v.1.15,2013-01-02 16:25:00,
2013-01-02 11:30:00,34.4,30.4,30.15,WSW,244,2.0,2.0,85,0.00,,,0.04,Wunderground v.1.15,2013-01-02 16:30:00,
2013-01-02 11:35:00,34.4,30.6,30.15,WNW,293,4.0,-999.0,86,0.00,,,0.04,Wunderground v.1.15,2013-01-02 16:35:00,
2013-01-02 11:40:00,34.4,30.4,30.15,SW,225,2.0,2.0,85,0.00,,,0.04,Wunderground v.1.15,2013-01-02 16:40:00,
2013-01-02 11:45:00,34.7,30.7,30.14,SW,225,1.0,2.0,85,0.00,,,0.04,Wunderground v.1.15,2013-01-02 16:45:00,
2013-01-02 11:50:00,34.7,30.4,30.15,SW,226,0.0,4.0,84,0.00,,,0.04,Wunderground v.1.15,2013-01-02 16:50:00,
2013-01-02 11:55:00,34.7,30.7,30.15,SW,225,0.0,-999.0,85,0.00,,,0.04,Wunderground v.1.15,2013-01-02 16:55:00,
2013-01-02 12:00:00,34.6,30.3,30.14,West,275,1.0,1.0,84,0.00,,,0.04,Wunderground v.1.15,2013-01-02 17:00:00,
2013-01-02 12:05:00,34.6,30.0,30.14,N/A,-737280,0.0,-999.0,83,0.00,,,0.04,Wunderground v.1.15,2013-01-02 17:05:00,
2013-01-02 12:10:00,34.4,30.1,30.14,West,275,0.0,0.0,84,0.00,,,0.04,Wunderground v.1.15,2013-01-02 17:10:00,
2013-01-02 12:15:00,34.4,30.1,30.14,N/A,-737280,0.0,-999.0,84,0.00,,,0.04,Wunderground v.1.15,2013-01-02 17:15:00,
2013-01-02 12:20:00,34.6,30.0,30.14,West,275,0.0,0.0,83,0.00,,,0.04,Wunderground v.1.15,2013-01-02 17:20:00,
2013-01-02 12:25:00,34.6,30.3,30.14,West,270,0.0,-999.0,84,0.00,,,0.04,Wunderground v.1.15,2013-01-02 17:25:00,
2013-01-02 12:30:00,34.4,29.5,30.14,West,279,0.0,0.0,82,0.00,,,0.04,Wunderground v.1.15,2013-01-02 17:30:00,
2013-01-02 12:35:00,34.4,29.8,30.14,N/A,-737280,0.0,-999.0,83,0.00,,,0.04,Wunderground v.1.15,2013-01-02 17:35:00,
2013-01-02 12:40:00,34.6,30.0,30.13,West,279,0.0,0.0,83,0.00,,,0.04,Wunderground v.1.15,2013-01-02 17:40:00,
2013-01-02 12:45:00,34.6,29.7,30.13,N/A,-737280,0.0,-999.0,82,0.00,,,0.04,Wunderground v.1.15,2013-01-02 17:45:00,
2013-01-02 12:50:00,34.6,30.0,30.13,N/A,-737280,0.0,-999.0,83,0.00,,,0.04,Wunderground v.1.15,2013-01-02 17:50:00,
2013-01-02 12:51:00,34.6,30.0,30.13,SW,233,0.0,2.0,83,0.00,,,0.04,Wunderground v.1.15,2013-01-02 17:51:00,
2013-01-02 12:55:00,34.6,29.7,30.13,N/A,-737280,0.0,-999.0,82,0.00,,,0.04,Wunderground v.1.15,2013-01-02 17:55:00,
2013-01-02 13:00:00,34.7,30.1,30.13,SW,233,0.0,4.0,83,0.00,,,0.04,Wunderground v.1.15,2013-01-02 18:00:00,
2013-01-02 13:05:00,34.7,30.1,30.13,N/A,-737280,0.0,-999.0,83,0.00,,,0.04,Wunderground v.1.15,2013-01-02 18:05:00,
2013-01-02 13:10:00,34.7,29.8,30.14,SW,234,0.0,0.0,82,0.00,,,0.04,Wunderground v.1.15,2013-01-02 18:10:00,
2013-01-02 13:15:00,34.9,30.6,30.13,N/A,-737280,0.0,-999.0,84,0.00,,,0.04,Wunderground v.1.15,2013-01-02 18:15:00,
2013-01-02 13:20:00,34.9,30.3,30.13,WSW,253,0.0,0.0,83,0.00,,,0.04,Wunderground v.1.15,2013-01-02 18:20:00,
2013-01-02 13:25:00,35.0,30.4,30.13,WSW,253,0.0,0.0,83,0.00,,,0.04,Wunderground v.1.15,2013-01-02 18:25:00,
2013-01-02 13:30:00,35.0,30.1,30.13,N/A,-737280,0.0,-999.0,82,0.00,,,0.04,Wunderground v.1.15,2013-01-02 18:30:00,
2013-01-02 13:35:00,35.0,30.1,30.13,WSW,253,0.0,0.0,82,0.00,,,0.04,Wunderground v.1.15,2013-01-02 18:35:00,
2013-01-02 13:40:00,35.2,30.0,30.13,WSW,240,1.0,1.0,81,0.00,,,0.04,Wunderground v.1.15,2013-01-02 18:40:00,
2013-01-02 13:45:00,35.0,29.8,30.12,N/A,-737280,0.0,-999.0,81,0.00,,,0.04,Wunderground v.1.15,2013-01-02 18:45:00,
2013-01-02 13:50:00,35.0,30.1,30.12,SW,225,1.0,1.0,82,0.00,,,0.04,Wunderground v.1.15,2013-01-02 18:50:00,
2013-01-02 13:55:00,34.9,29.7,30.13,WSW,248,1.0,-999.0,81,0.00,,,0.04,Wunderground v.1.15,2013-01-02 18:55:00,
2013-01-02 14:00:00,34.9,30.0,30.13,WSW,248,0.0,0.0,82,0.00,,,0.04,Wunderground v.1.15,2013-01-02 19:00:00,
2013-01-02 14:05:00,34.7,29.5,30.13,N/A,-737280,0.0,-999.0,81,0.00,,,0.04,Wunderground v.1.15,2013-01-02 19:05:00,
2013-01-02 14:10:00,34.7,29.2,30.13,WNW,293,2.0,-999.0,80,0.00,,,0.04,Wunderground v.1.15,2013-01-02 19:10:00,
2013-01-02 14:15:00,34.7,29.5,30.13,SW,223,1.0,1.0,81,0.00,,,0.04,Wunderground v.1.15,2013-01-02 19:15:00,
2013-01-02 14:20:00,35.2,30.0,30.13,N/A,-737280,0.0,-999.0,81,0.00,,,0.04,Wunderground v.1.15,2013-01-02 19:20:00,
2013-01-02 14:25:00,35.0,29.5,30.12,WNW,288,1.0,1.0,80,0.00,,,0.04,Wunderground v.1.15,2013-01-02 19:25:00,
2013-01-02 14:30:00,34.7,29.2,30.11,West,275,1.0,1.0,80,0.00,,,0.04,Wunderground v.1.15,2013-01-02 19:30:00,
2013-01-02 14:35:00,34.7,29.5,30.12,N/A,-737280,0.0,-999.0,81,0.00,,,0.04,Wunderground v.1.15,2013-01-02 19:35:00,
2013-01-02 14:40:00,34.7,29.5,30.12,West,270,2.0,-999.0,81,0.00,,,0.04,Wunderground v.1.15,2013-01-02 19:40:00,
2013-01-02 14:45:00,34.6,29.1,30.12,WNW,282,1.0,2.0,80,0.00,,,0.04,Wunderground v.1.15,2013-01-02 19:45:00,
2013-01-02 14:50:00,34.4,28.9,30.12,WSW,248,1.0,1.0,80,0.00,,,0.04,Wunderground v.1.15,2013-01-02 19:50:00,
2013-01-02 14:55:00,34.4,28.6,30.12,N/A,-737280,0.0,-999.0,79,0.00,,,0.04,Wunderground v.1.15,2013-01-02 19:55:00,
2013-01-02 15:00:00,34.4,28.6,30.13,WSW,246,0.0,2.0,79,0.00,,,0.04,Wunderground v.1.15,2013-01-02 20:00:00,
2013-01-02 15:05:00,34.3,28.8,30.13,WSW,248,0.0,-999.0,80,0.00,,,0.04,Wunderground v.1.15,2013-01-02 20:05:00,
2013-01-02 15:10:00,34.3,28.8,30.13,WSW,244,1.0,1.0,80,0.00,,,0.04,Wunderground v.1.15,2013-01-02 20:10:00,
2013-01-02 15:15:00,34.3,28.8,30.14,WSW,254,1.0,1.0,80,0.00,,,0.04,Wunderground v.1.15,2013-01-02 20:15:00,
2013-01-02 15:20:00,34.4,28.9,30.14,SW,214,0.0,0.0,80,0.00,,,0.04,Wunderground v.1.15,2013-01-02 20:20:00,
2013-01-02 15:25:00,34.4,28.9,30.14,WNW,293,2.0,-999.0,80,0.00,,,0.04,Wunderground v.1.15,2013-01-02 20:25:00,
2013-01-02 15:30:00,34.3,28.8,30.15,West,259,1.0,1.0,80,0.00,,,0.04,Wunderground v.1.15,2013-01-02 20:30:00,
2013-01-02 15:35:00,34.3,28.8,30.15,N/A,-737280,0.0,-999.0,80,0.00,,,0.04,Wunderground v.1.15,2013-01-02 20:35:00,
2013-01-02 15:40:00,34.1,28.3,30.15,West,274,1.0,1.0,79,0.00,,,0.04,Wunderground v.1.15,2013-01-02 20:40:00,
2013-01-02 15:45:00,34.1,28.6,30.15,West,278,1.0,1.0,80,0.00,,,0.04,Wunderground v.1.15,2013-01-02 20:45:00,
2013-01-02 15:50:00,34.1,28.6,30.15,West,278,0.0,0.0,80,0.00,,,0.04,Wunderground v.1.15,2013-01-02 20:50:00,
2013-01-02 15:55:00,34.0,28.5,30.15,WNW,293,2.0,-999.0,80,0.00,,,0.04,Wunderground v.1.15,2013-01-02 20:55:00,
2013-01-02 16:00:00,34.0,28.5,30.15,WSW,243,0.0,0.0,80,0.00,,,0.04,Wunderground v.1.15,2013-01-02 21:00:00,
2013-01-02 16:05:00,34.0,28.5,30.15,WSW,244,0.0,0.0,80,0.00,,,0.04,Wunderground v.1.15,2013-01-02 21:05:00,
2013-01-02 16:10:00,34.0,28.2,30.15,N/A,-737280,0.0,-999.0,79,0.00,,,0.04,Wunderground v.1.15,2013-01-02 21:10:00,
2013-01-02 16:15:00,33.8,28.0,30.15,West,261,0.0,0.0,79,0.00,,,0.04,Wunderground v.1.15,2013-01-02 21:15:00,
2013-01-02 16:20:00,33.8,28.3,30.16,West,261,0.0,0.0,80,0.00,,,0.04,Wunderground v.1.15,2013-01-02 21:20:00,
2013-01-02 16:25:00,34.0,28.8,30.16,N/A,-737280,0.0,-999.0,81,0.00,,,0.04,Wunderground v.1.15,2013-01-02 21:25:00,
2013-01-02 16:30:00,34.0,28.5,30.16,WSW,250,0.0,0.0,80,0.00,,,0.04,Wunderground v.1.15,2013-01-02 21:30:00,
2013-01-02 16:35:00,34.0,28.5,30.16,N/A,-737280,0.0,-999.0,80,0.00,,,0.04,Wunderground v.1.15,2013-01-02 21:35:00,
2013-01-02 16:40:00,34.0,28.5,30.16,N/A,-737280,0.0,-999.0,80,0.00,,,0.04,Wunderground v.1.15,2013-01-02 21:40:00,
2013-01-02 16:45:00,34.0,28.8,30.15,N/A,-737280,0.0,-999.0,81,0.00,,,0.04,Wunderground v.1.15,2013-01-02 21:45:00,
2013-01-02 16:50:00,34.0,28.8,30.15,WSW,250,0.0,0.0,81,0.00,,,0.04,Wunderground v.1.15,2013-01-02 21:50:00,
2013-01-02 16:55:00,34.0,28.5,30.15,N/A,-737280,0.0,-999.0,80,0.00,,,0.04,Wunderground v.1.15,2013-01-02 21:55:00,
2013-01-02 17:00:00,33.8,28.3,30.16,WSW,250,0.0,0.0,80,0.00,,,0.04,Wunderground v.1.15,2013-01-02 22:00:00,
2013-01-02 17:05:00,33.8,28.3,30.16,N/A,-737280,0.0,-999.0,80,0.00,,,0.04,Wunderground v.1.15,2013-01-02 22:05:00,
2013-01-02 17:10:00,33.8,28.3,30.15,WSW,250,0.0,0.0,80,0.00,,,0.04,Wunderground v.1.15,2013-01-02 22:10:00,
2013-01-02 17:15:00,33.7,28.2,30.15,WSW,250,0.0,0.0,80,0.00,,,0.04,Wunderground v.1.15,2013-01-02 22:15:00,
2013-01-02 17:20:00,33.7,28.2,30.16,N/A,-737280,0.0,-999.0,80,0.00,,,0.04,Wunderground v.1.15,2013-01-02 22:20:00,
2013-01-02 17:25:00,33.5,28.0,30.16,WSW,250,0.0,0.0,80,0.00,,,0.04,Wunderground v.1.15,2013-01-02 22:25:00,
2013-01-02 17:30:00,33.5,28.0,30.16,WSW,250,0.0,0.0,80,0.00,,,0.04,Wunderground v.1.15,2013-01-02 22:30:00,
2013-01-02 17:35:00,33.5,28.0,30.15,N/A,-737280,0.0,-999.0,80,0.00,,,0.04,Wunderground v.1.15,2013-01-02 22:35:00,
2013-01-02 17:40:00,33.4,27.9,30.15,WSW,250,0.0,0.0,80,0.00,,,0.04,Wunderground v.1.15,2013-01-02 22:40:00,
2013-01-02 17:45:00,33.4,27.9,30.15,N/A,-737280,0.0,-999.0,80,0.00,,,0.04,Wunderground v.1.15,2013-01-02 22:45:00,
2013-01-02 17:50:00,33.4,28.2,30.16,WSW,250,0.0,0.0,81,0.00,,,0.04,Wunderground v.1.15,2013-01-02 22:50:00,
2013-01-02 17:55:00,33.2,28.0,30.15,N/A,-737280,0.0,-999.0,81,0.00,,,0.04,Wunderground v.1.15,2013-01-02 22:55:00,
2013-01-02 18:00:00,33.2,28.0,30.15,WSW,250,0.0,0.0,81,0.00,,,0.04,Wunderground v.1.15,2013-01-02 23:00:00,
2013-01-02 18:05:00,33.2,28.0,30.15,WSW,250,0.0,0.0,81,0.00,,,0.04,Wunderground v.1.15,2013-01-02 23:05:00,
2013-01-02 18:10:00,33.1,27.9,30.15,N/A,-737280,0.0,-999.0,81,0.00,,,0.04,Wunderground v.1.15,2013-01-02 23:10:00,
2013-01-02 18:15:00,33.1,27.9,30.16,WSW,250,0.0,0.0,81,0.00,,,0.04,Wunderground v.1.15,2013-01-02 23:15:00,
2013-01-02 18:20:00,33.1,27.9,30.16,WSW,250,0.0,0.0,81,0.00,,,0.04,Wunderground v.1.15,2013-01-02 23:20:00,
2013-01-02 18:25:00,33.1,27.9,30.16,N/A,-737280,0.0,-999.0,81,0.00,,,0.04,Wunderground v.1.15,2013-01-02 23:25:00,
2013-01-02 18:30:00,33.1,28.2,30.17,WSW,250,0.0,0.0,82,0.00,,,0.04,Wunderground v.1.15,2013-01-02 23:30:00,
2013-01-02 18:35:00,32.9,28.0,30.17,N/A,-737280,0.0,-999.0,82,0.00,,,0.04,Wunderground v.1.15,2013-01-02 23:35:00,
2013-01-02 18:40:00,32.9,28.0,30.17,WSW,250,0.0,0.0,82,0.00,,,0.04,Wunderground v.1.15,2013-01-02 23:40:00,
2013-01-02 18:45:00,32.9,28.0,30.17,WSW,250,0.0,0.0,82,0.00,,,0.04,Wunderground v.1.15,2013-01-02 23:45:00,
2013-01-02 18:50:00,32.9,28.0,30.17,N/A,-737280,0.0,-999.0,82,0.00,,,0.04,Wunderground v.1.15,2013-01-02 23:50:00,
2013-01-02 18:55:00,32.9,28.0,30.18,WSW,250,0.0,0.0,82,0.00,,,0.04,Wunderground v.1.15,2013-01-02 23:55:00,
2013-01-02 19:00:00,32.9,28.0,30.18,WSW,250,0.0,0.0,82,0.00,,,0.04,Wunderground v.1.15,2013-01-03 00:00:00,
2013-01-02 19:05:00,32.9,28.0,30.19,N/A,-737280,0.0,-999.0,82,0.00,,,0.04,Wunderground v.1.15,2013-01-03 00:05:00,
2013-01-02 19:10:00,32.9,28.3,30.18,WSW,250,0.0,0.0,83,0.00,,,0.04,Wunderground v.1.15,2013-01-03 00:10:00,
2013-01-02 19:15:00,32.8,27.9,30.18,N/A,-737280,0.0,-999.0,82,0.00,,,0.04,Wunderground v.1.15,2013-01-03 00:15:00,
2013-01-02 19:20:00,32.8,27.9,30.17,WSW,250,0.0,0.0,82,0.00,,,0.04,Wunderground v.1.15,2013-01-03 00:20:00,
2013-01-02 19:25:00,32.8,27.9,30.17,WSW,250,0.0,0.0,82,0.00,,,0.04,Wunderground v.1.15,2013-01-03 00:25:00,
2013-01-02 19:30:00,32.8,28.2,30.17,WSW,250,0.0,0.0,83,0.00,,,0.04,Wunderground v.1.15,2013-01-03 00:30:00,
2013-01-02 19:35:00,32.8,28.2,30.18,WSW,250,0.0,0.0,83,0.00,,,0.04,Wunderground v.1.15,2013-01-03 00:35:00,
2013-01-02 19:40:00,32.8,28.2,30.18,N/A,-737280,0.0,-999.0,83,0.00,,,0.04,Wunderground v.1.15,2013-01-03 00:40:00,
2013-01-02 19:45:00,32.8,28.2,30.18,WSW,250,0.0,0.0,83,0.00,,,0.04,Wunderground v.1.15,2013-01-03 00:45:00,
2013-01-02 19:50:00,32.8,28.2,30.17,WSW,250,0.0,0.0,83,0.00,,,0.04,Wunderground v.1.15,2013-01-03 00:50:00,
2013-01-02 19:55:00,32.8,28.2,30.17,WSW,250,0.0,0.0,83,0.00,,,0.04,Wunderground v.1.15,2013-01-03 00:55:00,
2013-01-02 20:00:00,32.7,28.4,30.17,WSW,250,0.0,0.0,84,0.00,,,0.04,Wunderground v.1.15,2013-01-03 01:00:00,
2013-01-02 20:05:00,32.7,28.4,30.17,N/A,-737280,0.0,-999.0,84,0.00,,,0.04,Wunderground v.1.15,2013-01-03 01:05:00,
2013-01-02 20:10:00,32.5,27.9,30.17,WSW,250,0.0,0.0,83,0.00,,,0.04,Wunderground v.1.15,2013-01-03 01:10:00,
2013-01-02 20:15:00,32.5,28.2,30.17,WSW,250,0.0,0.0,84,0.00,,,0.04,Wunderground v.1.15,2013-01-03 01:15:00,
2013-01-02 20:20:00,32.4,27.8,30.17,WSW,250,0.0,0.0,83,0.00,,,0.04,Wunderground v.1.15,2013-01-03 01:20:00,
2013-01-02 20:25:00,32.4,28.1,30.18,N/A,-737280,0.0,-999.0,84,0.00,,,0.04,Wunderground v.1.15,2013-01-03 01:25:00,
2013-01-02 20:30:00,32.4,28.1,30.17,WSW,250,0.0,0.0,84,0.00,,,0.04,Wunderground v.1.15,2013-01-03 01:30:00,
2013-01-02 20:35:00,32.4,28.1,30.17,West,270,1.0,-999.0,84,0.00,,,0.04,Wunderground v.1.15,2013-01-03 01:35:00,
2013-01-02 20:40:00,32.4,28.1,30.17,West,281,1.0,1.0,84,0.00,,,0.04,Wunderground v.1.15,2013-01-03 01:40:00,
2013-01-02 20:45:00,32.4,28.1,30.17,N/A,-737280,0.0,-999.0,84,0.00,,,0.04,Wunderground v.1.15,2013-01-03 01:45:00,
2013-01-02 20:50:00,32.4,28.4,30.17,West,281,0.0,0.0,85,0.00,,,0.04,Wunderground v.1.15,2013-01-03 01:50:00,
2013-01-02 20:55:00,32.4,28.4,30.17,N/A,-737280,0.0,-999.0,85,0.00,,,0.04,Wunderground v.1.15,2013-01-03 01:55:00,
2013-01-02 21:00:00,32.4,28.4,30.18,West,281,0.0,0.0,85,0.00,,,0.04,Wunderground v.1.15,2013-01-03 02:00:00,
2013-01-02 21:05:00,32.4,28.4,30.17,N/A,-737280,0.0,-999.0,85,0.00,,,0.04,Wunderground v.1.15,2013-01-03 02:05:00,
2013-01-02 21:10:00,32.4,28.4,30.17,West,281,0.0,0.0,85,0.00,,,0.04,Wunderground v.1.15,2013-01-03 02:10:00,
2013-01-02 21:15:00,32.4,28.4,30.18,N/A,-737280,0.0,-999.0,85,0.00,,,0.04,Wunderground v.1.15,2013-01-03 02:15:00,
2013-01-02 21:20:00,32.2,28.2,30.18,West,281,0.0,0.0,85,0.00,,,0.04,Wunderground v.1.15,2013-01-03 02:20:00,
2013-01-02 21:25:00,32.2,28.2,30.18,West,281,0.0,0.0,85,0.00,,,0.04,Wunderground v.1.15,2013-01-03 02:25:00,
2013-01-02 21:30:00,32.4,28.4,30.18,West,281,0.0,0.0,85,0.00,,,0.04,Wunderground v.1.15,2013-01-03 02:30:00,
2013-01-02 21:35:00,32.4,28.4,30.18,West,281,0.0,0.0,85,0.00,,,0.04,Wunderground v.1.15,2013-01-03 02:35:00,
2013-01-02 21:40:00,32.4,28.4,30.18,West,281,0.0,0.0,85,0.00,,,0.04,Wunderground v.1.15,2013-01-03 02:40:00,
2013-01-02 21:45:00,32.4,28.4,30.18,N/A,-737280,0.0,-999.0,85,0.00,,,0.04,Wunderground v.1.15,2013-01-03 02:45:00,
2013-01-02 21:50:00,32.4,28.4,30.19,West,281,0.0,0.0,85,0.00,,,0.04,Wunderground v.1.15,2013-01-03 02:50:00,
2013-01-02 21:55:00,32.4,28.7,30.18,West,281,0.0,0.0,86,0.00,,,0.04,Wunderground v.1.15,2013-01-03 02:55:00,
2013-01-02 22:00:00,32.4,28.7,30.18,West,281,0.0,0.0,86,0.00,,,0.04,Wunderground v.1.15,2013-01-03 03:00:00,
2013-01-02 22:05:00,32.4,28.7,30.18,N/A,-737280,0.0,-999.0,86,0.00,,,0.04,Wunderground v.1.15,2013-01-03 03:05:00,
2013-01-02 22:10:00,32.4,28.4,30.19,West,281,0.0,0.0,85,0.00,,,0.04,Wunderground v.1.15,2013-01-03 03:10:00,
2013-01-02 22:15:00,32.4,28.4,30.20,West,281,0.0,0.0,85,0.00,,,0.04,Wunderground v.1.15,2013-01-03 03:15:00,
2013-01-02 22:20:00,32.5,28.5,30.19,N/A,-737280,0.0,-999.0,85,0.00,,,0.04,Wunderground v.1.15,2013-01-03 03:20:00,
2013-01-02 22:25:00,32.5,28.5,30.19,West,281,0.0,0.0,85,0.00,,,0.04,Wunderground v.1.15,2013-01-03 03:25:00,
2013-01-02 22:30:00,32.5,28.5,30.19,N/A,-737280,0.0,-999.0,85,0.00,,,0.04,Wunderground v.1.15,2013-01-03 03:30:00,
2013-01-02 22:35:00,32.5,28.5,30.19,N/A,-737280,0.0,-999.0,85,0.00,,,0.04,Wunderground v.1.15,2013-01-03 03:35:00,
2013-01-02 22:40:00,32.5,28.8,30.19,West,281,0.0,0.0,86,0.00,,,0.04,Wunderground v.1.15,2013-01-03 03:40:00,
2013-01-02 22:45:00,32.5,28.8,30.19,West,281,0.0,0.0,86,0.00,,,0.04,Wunderground v.1.15,2013-01-03 03:45:00,
2013-01-02 22:50:00,32.5,28.8,30.19,N/A,-737280,0.0,-999.0,86,0.00,,,0.04,Wunderground v.1.15,2013-01-03 03:50:00,
2013-01-02 22:55:00,32.5,28.8,30.19,West,281,0.0,0.0,86,0.00,,,0.04,Wunderground v.1.15,2013-01-03 03:55:00,
2013-01-02 23:00:00,32.5,28.5,30.19,West,281,0.0,0.0,85,0.00,,,0.04,Wunderground v.1.15,2013-01-03 04:00:00,
2013-01-02 23:05:00,32.5,28.8,30.19,West,281,0.0,0.0,86,0.00,,,0.04,Wunderground v.1.15,2013-01-03 04:05:00,
2013-01-02 23:10:00,32.5,28.8,30.19,N/A,-737280,0.0,-999.0,86,0.00,,,0.04,Wunderground v.1.15,2013-01-03 04:10:00,
2013-01-02 23:15:00,32.5,28.8,30.19,West,281,0.0,0.0,86,0.00,,,0.04,Wunderground v.1.15,2013-01-03 04:15:00,
2013-01-02 23:20:00,32.5,28.8,30.19,N/A,-737280,0.0,-999.0,86,0.00,,,0.04,Wunderground v.1.15,2013-01-03 04:20:00,
2013-01-02 23:25:00,32.5,29.1,30.19,West,281,0.0,1.0,87,0.00,,,0.04,Wunderground v.1.15,2013-01-03 04:25:00,
2013-01-02 23:30:00,32.4,29.0,30.19,West,281,0.0,0.0,87,0.00,,,0.04,Wunderground v.1.15,2013-01-03 04:30:00,
2013-01-02 23:35:00,32.4,29.0,30.19,West,281,0.0,0.0,87,0.00,,,0.04,Wunderground v.1.15,2013-01-03 04:35:00,
2013-01-02 23:40:00,32.2,28.8,30.19,West,281,0.0,0.0,87,0.00,,,0.04,Wunderground v.1.15,2013-01-03 04:40:00,
2013-01-02 23:45:00,32.1,28.7,30.19,N/A,-737280,0.0,-999.0,87,0.00,,,0.04,Wunderground v.1.15,2013-01-03 04:45:00,
2013-01-02 23:50:00,32.1,28.9,30.19,West,281,0.0,0.0,88,0.00,,,0.04,Wunderground v.1.15,2013-01-03 04:50:00,
2013-01-02 23:55:00,32.1,28.9,30.19,N/A,-737280,0.0,-999.0,88,0.00,,,0.04,Wunderground v.1.15,2013-01-03 04:55:00,